Minneapolis, Minnesota
Traffic Map
Current Weather Conditions
Minneapolis, Minnesota
Broken Clouds
Broken Clouds
63°
Feels Like: 63°
Wind Chill: 63° Ceiling: 10000
Heat Index: 63° Visibility: 10mi
Dew Point: 40° Wind: 16mph
Humidity: 43% Direction: 280° (W)
Pressure: 30.02in Gusts: 26mph
Raw Report DataKMSP 241753Z 28014G23KT 10SM FEW080 BKN100 17/04 A3002 RMK AO2 SLP163 T01720044 10183 20128 56001
Traffic Incident Summary
Active as of:
Severity:
Category:
InformationThere was an issue retrieving the traffic information for this location. Please try a different location or try again shortly.
Advertisements
Track Severe Weather on mobile